This is the latest recevied weather packets stored in our database for station/object CALDNA-WX. If no packets are shown the sender has not sent any weather packets the latest 10 day(s).
| Time | Temp. | Humidity | Pressure | Rain* | Wind** | Luminosity | Snow |
|---|---|---|---|---|---|---|---|
| 1778274922 | 16.67° C | 23% | 981.9 hPa | 0 mm | - | - | - |
| 1778274050 | 16.67° C | 23% | 981.9 hPa | 0 mm | - | - | - |
| 1778273123 | 16.67° C | 24% | 982 hPa | 0 mm | - | - | - |
| 1778272241 | 16.67° C | 21% | 981.7 hPa | 0 mm | - | - | - |
| 1778271323 | 16.67° C | 21% | 981.7 hPa | 0 mm | - | - | - |
| 1778270446 | 16.67° C | 19% | 981.7 hPa | 0 mm | - | - | - |
| 1778269523 | 16.67° C | 20% | 982 hPa | 0 mm | - | - | - |
| 1778268637 | 16.67° C | 20% | 982 hPa | 0 mm | - | - | - |
| 1778267722 | 16.67° C | 20% | 982 hPa | 0 mm | - | - | - |
| 1778266845 | 16.67° C | 20% | 982 hPa | 0 mm | - | - | - |
| 1778265923 | 16.67° C | 26% | 982.4 hPa | 0 mm | - | - | - |
| 1778265042 | 16.67° C | 25% | 982.1 hPa | 0 mm | - | - | - |
| 1778264122 | 16.11° C | 25% | 982.1 hPa | 0 mm | - | - | - |
| 1778263249 | 16.11° C | 25% | 982.1 hPa | 0 mm | - | - | - |
| 1778262323 | 15.56° C | 31% | 983.1 hPa | 0 mm | - | - | - |
| 1778261441 | 15.56° C | 31% | 983.1 hPa | 0 mm | - | - | - |
| 1778260523 | 15.56° C | 31% | 983.1 hPa | 0 mm | - | - | - |
| 1778259647 | 15° C | 31% | 983.1 hPa | 0 mm | - | - | - |
| 1778258722 | 15° C | 36% | 983.5 hPa | 0 mm | - | - | - |
| 1778257841 | 14.44° C | 36% | 983.7 hPa | 0 mm | - | - | - |
| 1778256923 | 13.89° C | 36% | 983.6 hPa | 0 mm | - | - | - |
| 1778256050 | 13.33° C | 36% | 983.6 hPa | 0 mm | - | - | - |
| 1778255123 | 12.78° C | 46% | 984.6 hPa | 0 mm | - | - | - |
| 1778254242 | 12.78° C | 45% | 983.5 hPa | 0 mm | - | - | - |
| 1778253322 | 12.22° C | 45% | 983.5 hPa | 0 mm | - | - | - |
* Rain latest hour (hover to see other rain measurements)
** Current wind speed in m/s (hover to see current wind gust speed)